Time;durP1;ratioP1;P1;durP2;ratioP2;P2;SDS_P1;SDS_P2;PMS_P1;PMS_P2;Temp;Humidity;BMP_temperature;BMP_pressure;BME280_temperature;BME280_humidity;BME280_pressure;Samples;Min_cycle;Max_cycle;Signal;HPM_P1;HPM_P2
2023/10/10 00:02:19;;;;;;;17.60;10.55;;;16.50;99.90;;;;;;5107700;28;20070;-91
2023/10/10 00:04:49;;;;;;;10.75;4.60;;;16.50;99.90;;;;;;5094943;28;20059;-91
2023/10/10 00:07:16;;;;;;;15.00;9.95;;;16.50;99.90;;;;;;5101668;28;20043;-92
2023/10/10 00:09:45;;;;;;;11.40;5.50;;;16.50;99.90;;;;;;5079336;28;20027;-91
2023/10/10 00:12:21;;;;;;;14.15;10.15;;;16.50;99.90;;;;;;5090191;28;20051;-91
2023/10/10 00:14:50;;;;;;;15.20;10.65;;;16.50;99.90;;;;;;5076081;28;20525;-92
2023/10/10 00:17:16;;;;;;;10.50;5.43;;;16.50;99.90;;;;;;5078949;28;20065;-91
2023/10/10 00:19:45;;;;;;;14.30;9.45;;;16.50;99.90;;;;;;5078567;28;20036;-91
2023/10/10 00:48:00;;;;;;;11.98;5.07;;;16.50;99.90;;;;;;5111290;28;20035;-91
2023/10/10 00:50:34;;;;;;;13.55;4.75;;;16.40;99.90;;;;;;5093342;28;20047;-90
2023/10/10 00:53:00;;;;;;;15.23;10.65;;;16.40;99.90;;;;;;5083106;28;20063;-92
2023/10/10 00:55:33;;;;;;;14.57;10.45;;;16.40;99.90;;;;;;5078847;28;20040;-91
2023/10/10 00:58:01;;;;;;;14.38;9.63;;;16.50;99.90;;;;;;5095106;28;20081;-91
2023/10/10 01:00:29;;;;;;;16.02;10.02;;;16.50;99.90;;;;;;5076715;28;20066;-91
2023/10/10 01:13:59;;;;;;;13.63;8.55;;;16.40;99.90;;;;;;5114183;28;20111;-91
2023/10/10 01:16:27;;;;;;;13.52;8.15;;;16.50;99.90;;;;;;5104685;28;20035;-91
2023/10/10 01:18:59;;;;;;;8.02;3.53;;;16.50;99.90;;;;;;5077192;28;20093;-91
2023/10/10 01:21:32;;;;;;;14.27;7.78;;;16.50;99.90;;;;;;5096373;28;20587;-91
2023/10/10 01:24:01;;;;;;;14.70;7.65;;;16.50;99.90;;;;;;5082505;28;20554;-91
2023/10/10 01:26:35;;;;;;;13.80;7.47;;;16.50;99.90;;;;;;5096597;28;20077;-91
2023/10/10 01:29:12;;;;;;;9.50;4.28;;;16.50;99.90;;;;;;5075561;28;20036;-92
2023/10/10 01:42:53;;;;;;;15.50;7.25;;;16.40;99.90;;;;;;5113091;28;20054;-91
2023/10/10 01:45:27;;;;;;;11.40;7.03;;;16.50;99.90;;;;;;5074878;28;20043;-91
2023/10/10 01:48:13;;;;;;;14.15;6.80;;;16.50;99.90;;;;;;5095241;28;20084;-91
2023/10/10 01:50:39;;;;;;;12.85;7.13;;;16.50;99.90;;;;;;5111844;28;20051;-90
2023/10/10 01:53:10;;;;;;;9.88;4.43;;;16.50;99.90;;;;;;5094048;28;20047;-90
2023/10/10 01:55:37;;;;;;;11.02;4.20;;;16.40;99.90;;;;;;5094518;28;20067;-91
2023/10/10 01:58:10;;;;;;;13.05;7.22;;;16.40;99.90;;;;;;5078137;28;20032;-91
2023/10/10 02:00:35;;;;;;;14.70;7.88;;;16.50;99.90;;;;;;5076718;28;20092;-91
2023/10/10 02:03:01;;;;;;;9.23;4.30;;;16.50;99.90;;;;;;5077985;28;20027;-91
2023/10/10 02:05:41;;;;;;;8.30;3.53;;;16.40;99.90;;;;;;5078366;28;20462;-91
2023/10/10 02:08:11;;;;;;;14.45;8.45;;;16.40;99.90;;;;;;5078317;28;20036;-91
2023/10/10 02:10:43;;;;;;;14.60;7.65;;;16.40;99.90;;;;;;5076190;28;20032;-93
2023/10/10 02:13:11;;;;;;;11.70;3.50;;;16.50;99.90;;;;;;5095033;28;20094;-93
2023/10/10 02:15:39;;;;;;;13.25;7.55;;;16.40;99.90;;;;;;5077119;28;20036;-92
2023/10/10 02:18:12;;;;;;;13.30;7.78;;;16.40;99.90;;;;;;5086194;28;20050;-92
2023/10/10 02:23:34;;;;;;;12.32;8.13;;;16.50;99.90;;;;;;5086677;28;20039;-92
2023/10/10 02:26:14;;;;;;;10.18;4.00;;;16.40;99.90;;;;;;5076326;28;20059;-92
2023/10/10 02:28:47;;;;;;;14.35;8.23;;;16.40;99.90;;;;;;5077863;28;20506;-93
2023/10/10 02:31:19;;;;;;;14.27;7.75;;;16.40;99.90;;;;;;5072253;28;20036;-93
2023/10/10 02:33:48;;;;;;;12.90;4.95;;;16.40;99.90;;;;;;5074349;28;20035;-93
2023/10/10 02:36:30;;;;;;;11.70;7.75;;;16.40;99.90;;;;;;5103118;28;20035;-92
2023/10/10 02:38:59;;;;;;;11.80;4.35;;;16.50;99.90;;;;;;5076714;28;20035;-92
2023/10/10 02:41:37;;;;;;;12.95;8.18;;;16.40;99.90;;;;;;5075495;28;20048;-93
2023/10/10 02:44:05;;;;;;;13.93;7.68;;;16.40;99.90;;;;;;5077998;28;20494;-94
2023/10/10 02:46:38;;;;;;;12.00;8.35;;;16.50;99.90;;;;;;5091624;28;20040;-92
2023/10/10 02:49:22;;;;;;;12.75;8.63;;;16.40;99.90;;;;;;5112292;28;20070;-93
2023/10/10 02:51:49;;;;;;;8.32;3.75;;;16.40;99.90;;;;;;5077888;28;20039;-93
2023/10/10 02:54:34;;;;;;;13.52;8.18;;;16.30;99.90;;;;;;5078146;28;20565;-93
2023/10/10 02:59:50;;;;;;;8.32;3.85;;;16.30;99.90;;;;;;5099777;28;20122;-92
2023/10/10 03:02:22;;;;;;;13.13;8.05;;;16.20;99.90;;;;;;5082952;28;20039;-94
2023/10/10 03:07:28;;;;;;;12.35;8.00;;;16.20;99.90;;;;;;5092364;28;20074;-92
2023/10/10 03:12:41;;;;;;;6.75;3.03;;;16.10;99.90;;;;;;5107389;28;20043;-92
2023/10/10 03:17:51;;;;;;;12.85;5.00;;;16.00;99.90;;;;;;5090984;28;20044;-92
2023/10/10 03:25:52;;;;;;;13.55;7.38;;;16.00;99.90;;;;;;5102647;28;20051;-93
2023/10/10 05:25:31;;;;;;;24.95;20.67;;;15.90;99.90;;;;;;5092425;28;20048;-93
2023/10/10 05:27:58;;;;;;;16.50;8.05;;;15.90;99.90;;;;;;5091576;28;20096;-92
2023/10/10 05:30:25;;;;;;;22.65;19.70;;;15.90;99.90;;;;;;5077562;28;20043;-92
2023/10/10 05:33:00;;;;;;;22.63;20.23;;;15.90;99.90;;;;;;5077096;28;20043;-93
2023/10/10 05:35:47;;;;;;;18.92;8.80;;;15.90;99.90;;;;;;5076728;28;20082;-92
2023/10/10 05:38:15;;;;;;;26.02;22.20;;;15.80;99.90;;;;;;5076365;28;20036;-92
2023/10/10 05:40:43;;;;;;;18.00;9.68;;;15.80;99.90;;;;;;5073064;28;20118;-92
2023/10/10 05:43:09;;;;;;;24.58;21.50;;;15.80;99.90;;;;;;5074800;28;20032;-93
2023/10/10 05:45:36;;;;;;;26.60;22.02;;;15.80;99.90;;;;;;5078669;28;20040;-93
2023/10/10 05:48:02;;;;;;;25.30;21.80;;;15.90;99.90;;;;;;5076663;28;20063;-93
2023/10/10 05:50:28;;;;;;;27.83;23.42;;;15.90;99.90;;;;;;5076429;28;20113;-93
2023/10/10 05:52:53;;;;;;;26.60;23.80;;;15.90;99.90;;;;;;5102537;28;20058;-92
2023/10/10 05:55:20;;;;;;;27.25;23.20;;;15.90;99.90;;;;;;5074731;28;20069;-93
2023/10/10 05:57:46;;;;;;;26.98;24.08;;;15.90;99.90;;;;;;5077644;28;20024;-94
2023/10/10 06:00:13;;;;;;;18.80;9.95;;;15.90;99.90;;;;;;5095373;28;20116;-93
2023/10/10 06:02:43;;;;;;;26.67;23.77;;;15.80;99.90;;;;;;5073868;28;20051;-94
2023/10/10 06:05:09;;;;;;;25.60;22.90;;;15.80;99.90;;;;;;5078033;28;20027;-93
2023/10/10 06:07:44;;;;;;;27.33;24.27;;;15.80;99.90;;;;;;5085554;28;20042;-93
2023/10/10 06:10:15;;;;;;;20.38;10.88;;;15.80;99.90;;;;;;5071699;27;20406;-93
2023/10/10 06:12:48;;;;;;;27.88;24.85;;;15.80;99.90;;;;;;5077632;28;20063;-93
2023/10/10 06:15:17;;;;;;;26.70;23.70;;;15.80;99.90;;;;;;5099292;28;20383;-94
2023/10/10 06:17:57;;;;;;;28.80;24.83;;;15.80;99.90;;;;;;5097323;28;20035;-92
2023/10/10 06:20:23;;;;;;;28.05;24.45;;;15.80;99.90;;;;;;5075255;28;20024;-94
2023/10/10 06:22:49;;;;;;;27.50;24.55;;;15.80;99.90;;;;;;5106277;28;20166;-92
2023/10/10 06:25:18;;;;;;;19.98;10.13;;;15.90;99.90;;;;;;5076356;28;20063;-93
2023/10/10 06:27:54;;;;;;;18.30;11.02;;;15.80;99.90;;;;;;5094924;28;20048;-92
2023/10/10 06:30:26;;;;;;;17.67;11.75;;;15.70;99.90;;;;;;5072024;28;20032;-93
2023/10/10 06:32:58;;;;;;;30.23;24.13;;;15.70;99.90;;;;;;5094438;28;20080;-93
2023/10/10 06:35:27;;;;;;;20.63;12.43;;;15.80;99.90;;;;;;5082314;28;20024;-94
2023/10/10 06:37:53;;;;;;;21.70;12.73;;;15.80;99.90;;;;;;5077609;28;20028;-93
2023/10/10 06:40:25;;;;;;;28.92;24.70;;;15.80;99.90;;;;;;5093042;28;20051;-93
2023/10/10 06:42:57;;;;;;;20.23;12.13;;;15.80;99.90;;;;;;5111884;27;20035;-95
2023/10/10 06:45:24;;;;;;;28.02;24.77;;;15.80;99.90;;;;;;5072320;28;20059;-94
2023/10/10 06:47:54;;;;;;;28.20;24.08;;;15.90;99.90;;;;;;5075683;28;20032;-93
2023/10/10 06:50:21;;;;;;;26.35;23.58;;;15.90;99.90;;;;;;5081893;28;20035;-93
2023/10/10 06:52:54;;;;;;;26.17;23.27;;;16.00;99.90;;;;;;5083352;28;20032;-93
2023/10/10 06:55:23;;;;;;;27.27;24.38;;;16.00;99.90;;;;;;5099181;28;20032;-94
2023/10/10 06:57:58;;;;;;;26.30;23.23;;;16.10;99.90;;;;;;5095640;28;20028;-94
2023/10/10 07:00:28;;;;;;;20.88;12.32;;;16.10;99.90;;;;;;5081479;28;20038;-94
2023/10/10 07:02:55;;;;;;;26.92;23.25;;;16.10;99.90;;;;;;5083462;28;20032;-93
2023/10/10 07:05:26;;;;;;;18.90;10.20;;;16.10;99.90;;;;;;5080252;28;20053;-93
2023/10/10 07:07:53;;;;;;;28.10;24.10;;;16.10;99.90;;;;;;5079367;28;20028;-93
2023/10/10 07:10:26;;;;;;;22.13;12.77;;;16.20;99.90;;;;;;5090629;28;20572;-93
2023/10/10 07:12:57;;;;;;;22.95;14.10;;;16.20;99.90;;;;;;5097586;28;20145;-93
2023/10/10 07:15:33;;;;;;;26.85;24.05;;;16.20;99.90;;;;;;5075789;28;20040;-93
2023/10/10 07:18:08;;;;;;;27.60;24.63;;;16.20;99.90;;;;;;5092526;28;20065;-94
2023/10/10 07:23:22;;;;;;;27.92;24.45;;;16.30;99.90;;;;;;5089350;28;20043;-92
2023/10/10 07:26:06;;;;;;;32.25;27.88;;;16.30;99.90;;;;;;5075448;28;20085;-93
2023/10/10 07:28:47;;;;;;;33.67;30.02;;;16.40;99.90;;;;;;5080009;28;20100;-93
2023/10/10 07:31:17;;;;;;;35.05;30.80;;;16.40;99.90;;;;;;5094364;28;20039;-94
2023/10/10 07:33:54;;;;;;;36.83;32.63;;;16.50;99.90;;;;;;5082642;28;20035;-93
2023/10/10 07:36:24;;;;;;;26.02;13.90;;;16.50;99.90;;;;;;5087327;28;20506;-93
2023/10/10 07:38:54;;;;;;;26.27;15.38;;;16.40;99.90;;;;;;5074380;28;20028;-93
2023/10/10 07:41:21;;;;;;;45.88;39.58;;;16.40;99.90;;;;;;5090705;28;20058;-93
2023/10/10 07:43:49;;;;;;;45.90;40.38;;;16.50;99.90;;;;;;5077556;28;20035;-93
2023/10/10 07:46:22;;;;;;;49.45;42.63;;;16.60;99.90;;;;;;5099455;28;20047;-94
2023/10/10 07:48:53;;;;;;;36.67;19.70;;;16.60;99.90;;;;;;5086329;28;20379;-93
2023/10/10 07:51:28;;;;;;;49.55;42.67;;;16.60;99.90;;;;;;5105183;28;20046;-93
2023/10/10 07:54:28;;;;;;;40.80;25.20;;;16.60;99.90;;;;;;5087229;28;20035;-93
2023/10/10 07:56:46;;;;;;;54.10;45.80;;;16.60;99.90;;;;;;5095485;28;20058;-92
2023/10/10 07:59:17;;;;;;;43.15;26.42;;;16.70;99.90;;;;;;5097021;28;20057;-93
2023/10/10 08:01:44;;;;;;;58.75;49.30;;;16.70;99.90;;;;;;5097691;28;20446;-94
2023/10/10 08:04:13;;;;;;;60.80;50.20;;;16.70;99.90;;;;;;5105807;28;20511;-94
2023/10/10 08:06:38;;;;;;;43.65;25.27;;;16.70;99.90;;;;;;5103377;27;20051;-95
2023/10/10 08:11:43;;;;;;;61.45;52.00;;;16.60;99.90;;;;;;5103413;28;20424;-94
2023/10/10 08:14:08;;;;;;;42.50;26.70;;;16.70;99.90;;;;;;5086511;28;20071;-95
2023/10/10 08:16:39;;;;;;;49.38;21.35;;;16.60;99.90;;;;;;5098130;28;20533;-94
2023/10/10 08:19:06;;;;;;;73.57;56.20;;;16.60;99.90;;;;;;5103567;28;20047;-94
2023/10/10 08:21:53;;;;;;;71.50;56.38;;;16.60;99.90;;;;;;5075773;28;20086;-94
2023/10/10 08:24:19;;;;;;;40.72;24.88;;;16.60;99.90;;;;;;5087897;28;20043;-93
2023/10/10 08:26:45;;;;;;;72.45;55.50;;;16.50;99.90;;;;;;5085172;28;20035;-94
2023/10/10 08:29:12;;;;;;;67.75;54.50;;;16.60;99.90;;;;;;5102639;28;20463;-93
2023/10/10 08:31:42;;;;;;;68.28;53.75;;;16.60;99.90;;;;;;5098404;28;20031;-94
2023/10/10 08:34:09;;;;;;;68.35;53.33;;;16.60;99.90;;;;;;5081023;28;20036;-94
2023/10/10 08:36:35;;;;;;;73.13;54.78;;;16.60;99.90;;;;;;5096884;28;20039;-95
2023/10/10 08:41:43;;;;;;;52.92;28.63;;;16.60;99.90;;;;;;5100868;28;20048;-93
2023/10/10 08:44:10;;;;;;;77.00;57.13;;;16.50;99.90;;;;;;5091386;28;20035;-93
2023/10/10 08:46:46;;;;;;;71.15;55.72;;;16.50;99.90;;;;;;5106202;28;20039;-94
2023/10/10 08:49:13;;;;;;;76.60;58.78;;;16.50;99.90;;;;;;5102553;28;20023;-93
2023/10/10 08:51:41;;;;;;;72.85;57.53;;;16.60;99.90;;;;;;5085046;28;20036;-93
2023/10/10 08:54:12;;;;;;;50.35;28.95;;;16.70;99.90;;;;;;5102169;28;20015;-93
2023/10/10 08:56:59;;;;;;;68.97;54.60;;;16.70;99.90;;;;;;5089486;28;20043;-94
2023/10/10 08:59:25;;;;;;;67.60;54.88;;;16.80;99.90;;;;;;5082116;28;20044;-94
2023/10/10 09:01:51;;;;;;;66.15;53.17;;;16.80;99.90;;;;;;5096987;28;20082;-93
2023/10/10 09:04:19;;;;;;;61.60;54.30;;;16.90;99.90;;;;;;5096605;28;20064;-94
2023/10/10 09:09:43;;;;;;;47.63;22.80;;;17.10;99.90;;;;;;5104545;28;20126;-93
2023/10/10 09:12:14;;;;;;;61.67;54.10;;;17.10;99.90;;;;;;5104284;28;20071;-94
2023/10/10 09:14:41;;;;;;;58.85;52.30;;;17.20;99.90;;;;;;5088195;28;20046;-94
2023/10/10 09:17:28;;;;;;;56.70;50.55;;;17.30;99.90;;;;;;5104719;28;20495;-94
2023/10/10 09:19:56;;;;;;;44.17;25.70;;;17.30;99.90;;;;;;5104593;28;20533;-93
2023/10/10 09:22:43;;;;;;;56.75;50.72;;;17.30;99.90;;;;;;5086054;28;20040;-93
2023/10/10 09:25:48;;;;;;;57.20;50.45;;;17.30;99.90;;;;;;5079278;28;20071;-93
2023/10/10 09:28:15;;;;;;;44.65;31.38;;;17.40;99.90;;;;;;5079563;28;20048;-93
2023/10/10 09:30:49;;;;;;;52.88;47.20;;;17.40;99.90;;;;;;5083782;28;20031;-94
2023/10/10 09:33:29;;;;;;;39.40;26.35;;;17.50;99.90;;;;;;5080285;28;20040;-94
2023/10/10 09:36:09;;;;;;;53.15;47.70;;;17.50;99.90;;;;;;5079493;28;20035;-94
2023/10/10 09:38:45;;;;;;;52.67;46.92;;;17.60;99.90;;;;;;5087665;28;20051;-93
2023/10/10 09:49:52;;;;;;;51.08;45.72;;;18.00;99.90;;;;;;5104528;28;20051;-94
2023/10/10 09:57:42;;;;;;;47.90;42.88;;;18.20;99.90;;;;;;5100345;28;20047;-94
2023/10/10 10:00:15;;;;;;;38.10;24.83;;;18.30;99.90;;;;;;5087361;28;20042;-95
2023/10/10 10:02:43;;;;;;;49.47;44.08;;;18.20;99.90;;;;;;5087716;28;20074;-95
2023/10/10 10:05:18;;;;;;;48.78;42.03;;;18.30;99.90;;;;;;5087209;28;20036;-96
2023/10/10 10:07:56;;;;;;;46.63;41.72;;;18.40;99.90;;;;;;5099263;28;20050;-93
2023/10/10 10:10:52;;;;;;;46.42;41.53;;;18.50;99.90;;;;;;5096618;28;20120;-93
2023/10/10 10:13:28;;;;;;;48.22;43.22;;;18.50;99.90;;;;;;5077011;28;20031;-94
2023/10/10 10:16:09;;;;;;;47.35;42.33;;;18.60;99.90;;;;;;5082281;28;20046;-94
2023/10/10 10:18:45;;;;;;;36.35;24.92;;;18.70;99.90;;;;;;5076459;28;20043;-95
2023/10/10 10:21:19;;;;;;;45.50;40.60;;;18.70;99.90;;;;;;5092545;28;20479;-94
2023/10/10 10:23:48;;;;;;;46.67;41.90;;;18.70;99.90;;;;;;5095021;28;20069;-95
2023/10/10 10:26:34;;;;;;;46.53;41.78;;;18.80;99.90;;;;;;5086118;28;20084;-93
2023/10/10 10:29:15;;;;;;;46.85;41.80;;;18.80;99.90;;;;;;5086178;28;20039;-95
2023/10/10 10:31:48;;;;;;;45.30;40.67;;;18.90;99.90;;;;;;5086690;28;20406;-96
2023/10/10 10:34:35;;;;;;;43.65;39.13;;;19.10;99.90;;;;;;5071609;28;20031;-95
2023/10/10 10:37:19;;;;;;;44.58;39.75;;;19.10;99.90;;;;;;5086734;28;20036;-95
2023/10/10 10:40:23;;;;;;;44.75;40.00;;;19.10;99.90;;;;;;5086480;28;20035;-95
2023/10/10 10:42:38;;;;;;;44.45;39.78;;;19.20;99.90;;;;;;5103982;28;20065;-95
2023/10/10 10:45:24;;;;;;;37.08;24.50;;;19.30;99.90;;;;;;5096349;28;20398;-95
2023/10/10 10:47:59;;;;;;;43.53;38.28;;;19.30;99.90;;;;;;5078172;28;20241;-96
2023/10/10 10:50:29;;;;;;;44.60;40.05;;;19.40;99.90;;;;;;5101128;28;20192;-94
2023/10/10 10:53:08;;;;;;;42.25;37.70;;;19.50;99.90;;;;;;5086917;28;20040;-96
2023/10/10 10:55:39;;;;;;;44.15;39.45;;;19.60;99.90;;;;;;5104255;28;20508;-96
2023/10/10 10:58:07;;;;;;;42.17;37.87;;;19.60;99.90;;;;;;5095801;28;20044;-95
2023/10/10 11:01:06;;;;;;;40.83;36.53;;;19.70;99.90;;;;;;5091607;28;20036;-95
2023/10/10 11:03:37;;;;;;;41.33;37.03;;;19.80;99.90;;;;;;5086694;28;20043;-95
2023/10/10 11:06:14;;;;;;;39.50;35.30;;;19.90;99.90;;;;;;5080012;28;20656;-95
2023/10/10 11:11:36;;;;;;;42.65;38.05;;;20.00;99.90;;;;;;5095007;28;20040;-94
2023/10/10 11:14:15;;;;;;;41.42;37.20;;;20.10;99.90;;;;;;5089504;28;20031;-94
2023/10/10 11:16:56;;;;;;;40.90;36.60;;;20.20;99.90;;;;;;5100522;28;20043;-95
2023/10/10 11:22:02;;;;;;;41.30;36.42;;;20.30;99.90;;;;;;5096983;28;20425;-94
2023/10/10 11:24:33;;;;;;;39.33;35.13;;;20.30;99.90;;;;;;5098351;28;20130;-95
2023/10/10 11:29:47;;;;;;;39.15;34.95;;;20.40;99.90;;;;;;5105197;27;20043;-95
2023/10/10 11:32:24;;;;;;;38.38;34.28;;;20.40;99.90;;;;;;5102046;28;20044;-94
2023/10/10 11:34:56;;;;;;;38.13;33.47;;;20.40;99.90;;;;;;5082988;28;20039;-94
2023/10/10 11:37:31;;;;;;;37.22;33.17;;;20.40;99.90;;;;;;5101053;28;20043;-96
2023/10/10 11:43:04;;;;;;;38.00;33.90;;;20.50;99.90;;;;;;5118591;27;20089;-95
2023/10/10 11:45:50;;;;;;;36.40;32.28;;;20.70;99.90;;;;;;5087172;28;20040;-96
2023/10/10 11:48:16;;;;;;;35.92;32.15;;;20.80;99.90;;;;;;5081771;28;20124;-96
2023/10/10 11:50:56;;;;;;;34.92;31.02;;;21.00;99.90;;;;;;5087115;28;20044;-95
2023/10/10 11:53:27;;;;;;;33.97;29.65;;;21.20;99.90;;;;;;5081402;28;20047;-95
2023/10/10 11:56:07;;;;;;;33.60;28.95;;;21.40;99.90;;;;;;5089510;28;20121;-96
2023/10/10 11:58:38;;;;;;;27.85;24.50;;;21.60;99.90;;;;;;5084433;28;20043;-95
2023/10/10 12:01:09;;;;;;;26.65;23.38;;;21.60;99.90;;;;;;5082015;28;20035;-95
2023/10/10 12:03:43;;;;;;;27.83;23.40;;;21.70;99.90;;;;;;5091261;28;20031;-95
2023/10/10 12:06:26;;;;;;;28.08;22.00;;;21.90;99.90;;;;;;5107001;28;20054;-96
2023/10/10 12:08:53;;;;;;;26.75;23.85;;;22.00;99.90;;;;;;5104626;28;20054;-96
2023/10/10 12:11:22;;;;;;;26.58;23.02;;;22.10;99.90;;;;;;5120762;27;20048;-95
2023/10/10 12:13:48;;;;;;;27.77;24.38;;;22.20;99.90;;;;;;5103912;28;20046;-96
2023/10/10 12:16:17;;;;;;;27.23;22.88;;;22.20;99.90;;;;;;5087124;28;20031;-95
2023/10/10 12:18:53;;;;;;;27.55;22.27;;;22.20;99.90;;;;;;5087040;28;20494;-90
2023/10/10 12:21:31;;;;;;;28.05;22.30;;;22.30;99.90;;;;;;5081773;28;20078;-89
2023/10/10 12:23:57;;;;;;;25.75;22.45;;;22.30;99.90;;;;;;5097289;28;20048;-89
2023/10/10 12:26:38;;;;;;;27.05;22.63;;;22.30;99.90;;;;;;5098681;28;20039;-89
2023/10/10 12:29:04;;;;;;;26.60;21.20;;;22.40;99.90;;;;;;5105277;28;20035;-89
2023/10/10 12:31:33;;;;;;;23.92;20.77;;;22.30;99.90;;;;;;5079973;28;20044;-89
2023/10/10 12:34:00;;;;;;;25.08;20.33;;;22.30;99.90;;;;;;5095915;28;20081;-89
2023/10/10 12:36:32;;;;;;;24.80;21.13;;;22.30;99.90;;;;;;5097098;28;20123;-89
2023/10/10 12:38:59;;;;;;;25.02;20.27;;;22.40;99.90;;;;;;5080815;28;20028;-89
2023/10/10 12:41:26;;;;;;;24.55;20.70;;;22.40;99.90;;;;;;5096335;28;20044;-89
2023/10/10 12:43:52;;;;;;;26.77;20.15;;;22.50;99.90;;;;;;5100671;27;20557;-89
2023/10/10 12:46:20;;;;;;;25.40;20.35;;;22.50;99.90;;;;;;5089214;27;20628;-89
2023/10/10 12:48:49;;;;;;;25.80;20.67;;;22.60;99.90;;;;;;5105849;27;20050;-89
2023/10/10 12:51:14;;;;;;;26.05;20.52;;;22.70;99.90;;;;;;5106937;27;20119;-89
2023/10/10 12:53:42;;;;;;;25.08;20.35;;;22.80;99.90;;;;;;5096812;28;20075;-89
2023/10/10 12:56:16;;;;;;;25.35;20.23;;;22.80;99.90;;;;;;5079571;28;20118;-89
2023/10/10 12:58:51;;;;;;;26.88;20.35;;;22.60;99.90;;;;;;5096428;28;20110;-89
2023/10/10 13:01:22;;;;;;;23.95;20.58;;;22.40;99.90;;;;;;5097413;28;20039;-89
2023/10/10 13:03:51;;;;;;;25.77;20.80;;;22.30;99.90;;;;;;5099160;28;20048;-89
2023/10/10 13:06:18;;;;;;;24.85;21.05;;;22.10;99.90;;;;;;5097644;28;20043;-89
2023/10/10 13:11:20;;;;;;;23.55;19.88;;;22.00;99.90;;;;;;5104579;28;20078;-89
2023/10/10 13:13:48;;;;;;;24.67;19.80;;;21.90;99.90;;;;;;5096069;28;20051;-89
2023/10/10 13:19:06;;;;;;;25.63;20.30;;;21.70;99.90;;;;;;5095369;28;20047;-89
2023/10/10 13:21:34;;;;;;;25.05;19.55;;;21.60;99.90;;;;;;5101264;28;20046;-89
2023/10/10 13:24:00;;;;;;;23.50;19.20;;;21.60;99.90;;;;;;5095856;28;20422;-89
2023/10/10 13:26:27;;;;;;;23.15;19.67;;;21.50;99.90;;;;;;5098588;28;20047;-89
2023/10/10 13:28:53;;;;;;;22.40;18.85;;;21.50;99.90;;;;;;5081154;28;20032;-89
2023/10/10 13:31:24;;;;;;;23.17;18.58;;;21.40;99.90;;;;;;5078724;28;20092;-89
2023/10/10 13:33:50;;;;;;;22.65;19.58;;;21.40;99.90;;;;;;5087332;28;20080;-89
2023/10/10 13:36:16;;;;;;;24.00;20.20;;;21.30;99.90;;;;;;5095788;28;20074;-89
2023/10/10 13:38:47;;;;;;;25.60;20.25;;;21.30;99.90;;;;;;5095680;28;20047;-89
2023/10/10 13:41:18;;;;;;;21.40;18.85;;;21.20;99.90;;;;;;5095252;28;20043;-89
2023/10/10 13:43:48;;;;;;;23.38;18.38;;;21.20;99.90;;;;;;5095424;28;20043;-89
2023/10/10 13:46:15;;;;;;;21.58;17.60;;;21.10;99.90;;;;;;5095332;28;20047;-89
2023/10/10 13:48:41;;;;;;;25.17;17.33;;;21.10;99.90;;;;;;5078751;28;20067;-89
2023/10/10 13:51:07;;;;;;;21.63;16.55;;;21.20;99.90;;;;;;5095397;28;20074;-89
2023/10/10 13:53:40;;;;;;;20.50;15.80;;;21.30;99.90;;;;;;5097264;28;20044;-89
2023/10/10 13:56:06;;;;;;;;;;;21.40;99.90;;;;;;5117055;28;20067;-89
2023/10/10 13:58:32;;;;;;;22.55;16.88;;;21.50;99.90;;;;;;5082568;28;19922;-89
2023/10/10 14:01:36;;;;;;;21.10;16.35;;;21.60;99.90;;;;;;5078631;28;20031;-89
2023/10/10 14:03:56;;;;;;;21.50;16.13;;;21.50;99.90;;;;;;5089268;28;20040;-89
2023/10/10 14:06:27;;;;;;;22.23;15.50;;;21.50;99.90;;;;;;5076580;28;20122;-89
2023/10/10 14:08:53;;;;;;;21.00;16.48;;;21.40;99.90;;;;;;5077943;28;20036;-89
2023/10/10 14:11:22;;;;;;;19.00;15.25;;;21.30;99.90;;;;;;5095126;28;21769;-89
2023/10/10 14:13:52;;;;;;;22.10;15.45;;;21.30;99.90;;;;;;5095039;28;20042;-89
2023/10/10 14:16:19;;;;;;;19.25;15.05;;;21.20;99.90;;;;;;5078077;28;20118;-89
2023/10/10 14:18:52;;;;;;;20.52;15.60;;;21.10;99.90;;;;;;5078071;28;20479;-89
2023/10/10 14:21:27;;;;;;;19.92;15.32;;;21.10;99.90;;;;;;5094776;28;20047;-89
2023/10/10 14:24:04;;;;;;;19.85;15.18;;;21.00;99.90;;;;;;5095237;28;20519;-89
2023/10/10 14:26:33;;;;;;;19.60;15.40;;;21.00;99.90;;;;;;5078288;28;20564;-89
2023/10/10 14:29:05;;;;;;;20.75;15.45;;;21.00;99.90;;;;;;5077907;28;20038;-89
2023/10/10 14:31:31;;;;;;;18.85;14.38;;;21.00;99.90;;;;;;5077793;28;20047;-89
2023/10/10 14:34:01;;;;;;;20.92;15.30;;;21.00;99.90;;;;;;5077911;28;20039;-89
2023/10/10 14:36:27;;;;;;;22.15;15.95;;;21.00;99.90;;;;;;5077881;28;20111;-89
2023/10/10 14:38:53;;;;;;;19.27;14.18;;;21.00;99.90;;;;;;5077715;28;20035;-89
2023/10/10 14:41:23;;;;;;;18.58;13.75;;;21.10;99.90;;;;;;5079077;28;20406;-89
2023/10/10 14:43:52;;;;;;;17.70;13.55;;;21.20;99.90;;;;;;5097278;28;20075;-89
2023/10/10 14:46:22;;;;;;;19.38;13.82;;;21.30;99.90;;;;;;5077942;28;20035;-89
2023/10/10 14:49:00;;;;;;;20.30;13.85;;;21.50;99.90;;;;;;5077834;28;20035;-89
2023/10/10 14:51:29;;;;;;;18.40;14.10;;;21.60;99.90;;;;;;5077757;28;20035;-89
2023/10/10 14:53:56;;;;;;;21.00;13.77;;;21.60;99.90;;;;;;5094398;28;20035;-89
2023/10/10 14:56:34;;;;;;;18.80;13.70;;;21.60;99.90;;;;;;5076615;28;20396;-89
2023/10/10 14:59:01;;;;;;;18.40;13.05;;;21.60;99.90;;;;;;5084137;28;20044;-89
2023/10/10 15:01:34;;;;;;;20.85;13.23;;;21.60;99.90;;;;;;5077614;28;20048;-89
2023/10/10 15:04:04;;;;;;;17.52;13.75;;;21.50;99.90;;;;;;5094595;28;20040;-89
2023/10/10 15:06:30;;;;;;;19.02;14.25;;;21.30;99.90;;;;;;5094629;28;20056;-89
2023/10/10 15:08:56;;;;;;;19.08;13.20;;;21.30;99.90;;;;;;5076237;28;20040;-89
2023/10/10 15:11:23;;;;;;;20.48;13.88;;;21.20;99.90;;;;;;5097336;27;20065;-89
2023/10/10 15:13:49;;;;;;;18.05;13.85;;;21.20;99.90;;;;;;5101307;28;20035;-89
2023/10/10 15:16:16;;;;;;;18.38;13.45;;;21.10;99.90;;;;;;5122316;28;20559;-89
2023/10/10 15:18:41;;;;;;;17.55;13.02;;;21.10;99.90;;;;;;5099538;28;20035;-88
2023/10/10 15:21:07;;;;;;;19.90;14.23;;;21.00;99.90;;;;;;5096090;28;20398;-89
2023/10/10 15:23:33;;;;;;;19.83;13.45;;;21.00;99.90;;;;;;5080989;28;20486;-89
2023/10/10 15:26:05;;;;;;;18.98;14.18;;;21.00;99.90;;;;;;5077239;28;20046;-89
2023/10/10 15:28:31;;;;;;;;;;;21.00;99.90;;;;;;5100899;28;20051;-89
2023/10/10 15:30:57;;;;;;;20.08;14.80;;;20.90;99.90;;;;;;5070548;28;20370;-89
2023/10/10 15:33:25;;;;;;;21.30;14.88;;;20.90;99.90;;;;;;5093777;28;20043;-89
2023/10/10 15:35:52;;;;;;;19.75;14.98;;;21.00;99.90;;;;;;5108549;28;20050;-89
2023/10/10 15:38:22;;;;;;;17.60;13.80;;;21.10;99.90;;;;;;5090554;28;20427;-88
2023/10/10 15:40:49;;;;;;;21.65;15.05;;;21.10;99.90;;;;;;5072488;28;20178;-88
2023/10/10 15:43:15;;;;;;;22.23;14.93;;;21.00;99.90;;;;;;5089958;28;20035;-89
2023/10/10 15:45:44;;;;;;;19.40;14.77;;;21.00;99.90;;;;;;5077291;28;20036;-89
2023/10/10 15:48:38;;;;;;;21.08;15.45;;;20.90;99.90;;;;;;5075214;28;20144;-89
2023/10/10 15:50:59;;;;;;;20.17;15.13;;;21.00;99.90;;;;;;5085111;28;20482;-89
2023/10/10 15:53:25;;;;;;;21.45;15.73;;;20.90;99.90;;;;;;5075250;28;20115;-88
2023/10/10 15:56:12;;;;;;;20.50;15.27;;;20.80;99.90;;;;;;5077068;28;20121;-89
2023/10/10 15:58:39;;;;;;;19.55;15.18;;;20.80;99.90;;;;;;5073344;28;20046;-88
2023/10/10 16:01:21;;;;;;;19.08;14.85;;;20.70;99.90;;;;;;5090996;28;20056;-88
2023/10/10 16:03:51;;;;;;;20.55;16.02;;;20.60;99.90;;;;;;5084108;28;20122;-89
2023/10/10 16:06:18;;;;;;;20.27;15.23;;;20.50;99.90;;;;;;5073758;28;20039;-88
2023/10/10 16:08:47;;;;;;;20.38;15.15;;;20.50;99.90;;;;;;5091383;28;20118;-89
2023/10/10 16:11:13;;;;;;;18.02;14.82;;;20.40;99.90;;;;;;5117842;27;20050;-88
2023/10/10 16:13:39;;;;;;;21.88;15.35;;;20.40;99.90;;;;;;5077846;28;20040;-89
2023/10/10 16:16:07;;;;;;;20.73;15.85;;;20.40;99.90;;;;;;5077410;28;20042;-88
2023/10/10 16:18:35;;;;;;;22.77;15.20;;;20.30;99.90;;;;;;5074305;28;20055;-88
2023/10/10 16:21:04;;;;;;;18.85;15.30;;;20.30;99.90;;;;;;5077820;27;20623;-88
2023/10/10 16:23:32;;;;;;;19.73;15.02;;;20.30;99.90;;;;;;5106306;27;20043;-88
2023/10/10 16:25:58;;;;;;;21.73;15.45;;;20.20;99.90;;;;;;5092787;28;20040;-88
2023/10/10 16:28:26;;;;;;;20.70;15.88;;;20.20;99.90;;;;;;5076969;28;20027;-88
2023/10/10 16:30:53;;;;;;;20.10;15.07;;;20.20;99.90;;;;;;5098469;27;20039;-88
2023/10/10 16:33:23;;;;;;;21.30;15.60;;;20.10;99.90;;;;;;5100932;28;20034;-88
2023/10/10 16:35:49;;;;;;;19.13;15.00;;;20.10;99.90;;;;;;5079917;28;20036;-88
2023/10/10 16:38:21;;;;;;;20.33;15.63;;;20.00;99.90;;;;;;5076468;28;20052;-88